This demonstration page uses our WeatherBlox Daily Observations layout. Learn more.

36.17497, -115.13722

Hourly Observations for May 16, 2015

Temp ( °F °C ) Dew Point ( °F °C ) Humidity (%) Winds ( mph kmh ) Pressure ( in mb ) Visibility ( mi km ) Precip ( " mm )
12:53 am 00:53 Clear 56 13.3 38 3.3 51 51 Calm 29.8 1009 10 16.0934 0 0
1:53 am 01:53 Cloudy 55 12.8 39 3.9 55 55 N 5 7 29.8 1009 10 16.0934 0 0
2:53 am 02:53 Mostly Clear 54 12.2 39 3.9 57 57 N 3 6 29.81 1010 10 16.0934 0 0
3:53 am 03:53 Cloudy 54 12.2 40 4.4 59 59 ENE 3 6 29.82 1010 10 16.0934 0 0
4:53 am 04:53 Clear 53 11.7 39 3.9 59 59 Calm 29.83 1010 10 16.0934 0 0
5:53 am 05:53 Sunny 52 11.1 40 4.4 64 64 N 5 7 29.86 1011 10 16.0934 0 0
6:53 am 06:53 Partly Cloudy 55 12.8 40 4.4 57 57 NNE 3 6 29.88 1012 10 16.0934 0 0
7:53 am 07:53 Mostly Sunny 56 13.3 39 3.9 53 53 Calm 29.9 1012 10 16.0934 0 0
8:53 am 08:53 Mostly Sunny 61 16.1 38 3.3 43 43 ESE 6 9 29.89 1012 10 16.0934 0 0
9:53 am 09:53 Mostly Sunny 64 17.8 35 1.7 34 34 Calm 29.9 1012 10 16.0934 0 0
10:53 am 10:53 Mostly Cloudy 67 19.4 34 1.1 30 30 VRB 5 7 29.9 1012 10 16.0934 0 0
11:53 am 11:53 Mostly Cloudy 69 20.6 33 0.6 26 26 VRB 6 9 29.89 1012 10 16.0934 0 0
12:53 pm 12:53 Cloudy 71 21.7 32 0 24 24 S 8 13 29.89 1012 10 16.0934 0 0
1:53 pm 13:53 Mostly Sunny 75 23.9 30 -1.1 19 19 W 13 20 29.88 1012 10 16.0934 0 0
2:53 pm 14:53 Sunny 74 23.3 30 -1.1 20 20 SSE 8 13 29.88 1012 10 16.0934 0 0
3:53 pm 15:53 Partly Cloudy 74 23.3 30 -1.1 20 20 SSE 6 9 29.86 1011 10 16.0934 0 0
4:53 pm 16:53 Sunny 75 23.9 29 -1.7 18 18 S 13 20 29.86 1011 10 16.0934 0 0
5:53 pm 17:53 Sunny 77 25 28 -2.2 16 16 S 12 19 29.85 1011 10 16.0934 0 0
6:53 pm 18:53 Sunny 76 24.4 28 -2.2 17 17 SSW 10 17 29.85 1011 10 16.0934 0 0
7:53 pm 19:53 Clear 74 23.3 26 -3.3 17 17 WSW 9 15 29.86 1011 10 16.0934 0 0
8:53 pm 20:53 Clear 73 22.8 26 -3.3 17 17 SSW 6 9 29.88 1012 10 16.0934 0 0
9:53 pm 21:53 Clear 70 21.1 28 -2.2 21 21 S 10 17 29.9 1012 10 16.0934 0 0
10:53 pm 22:53 Clear 69 20.6 29 -1.7 22 22 S 10 17 29.9 1013 10 16.0934 0 0
11:53 pm 23:53 Clear 68 20 33 0.6 27 27 SSW 14 22 29.91 1013 10 16.0934 0 0

Powered by AerisWeather